Art, Indiana
Current Conditions -  °F | °C
As of 4:53 AM on Tuesday 21 Oct 2014 (Local Time) from KHUF Reporting Station
Overcast Overcast  
Wind Chill:   Ceiling: 5500
Heat Index:   Visibility: 10mi
Dew Point:   Wind: 3mph
Humidity: 90%   Direction: 350°N
Pressure: 30.01"   Gusts: NA
Location:  39.5158°N, 87.1262°W
Report Text: KHUF 210853Z 35003KT 10SM OVC055 09/08 A3001 RMK AO2 SLP162 T00940078 53007 $
Loading
Personal Weather Stations






























Interactive Weather Map
Tropical Storm Tracking
New forecast layout! Learn more

10-Day Weather Forecast

Advertisements
Track Severe Weather on mobile